YM Enlightenment — D5HJ2 — position and weather

sailwx.info

Track history (hours):
 
Tides and Currents Weather Stations Pressure Air Temp Water Temp Dewpoint Dewpoint Depression Visibility Wind Speed Wind Dir Waves Ship Positions

YM Enlightenment

Last reported at 2017-Dec-10 14:44 UTC. Time now 2017-Dec-12 19:51 UTC.
Position N 50°02' W 003°42'.

Length 259 m; draft 12.7 m.

Type: Ship (hazmat cat A). MMSI: 636016703.

Date/timePositionNaut miles runAvg speedWind from/ knotsBaromVisibWave heightAir tempDewpointWater temp
2017-Dec-10 14:44N 50°02' W 003°42'414.0
2017-Dec-10 14:28N 50°04' W 003°37'714.2
2017-Dec-10 14:00N 50°09' W 003°30'714.2
2017-Dec-10 13:30N 50°16' W 003°27'3 5.7
2017-Dec-10 13:00N 50°19' W 003°27'611.6
2017-Dec-10 12:30N 50°24' W 003°25'3 6.9
2017-Dec-10 12:00N 50°26' W 003°21'815.3
2017-Dec-10 11:31N 50°27' W 003°09'714.9
2017-Dec-10 11:01N 50°27' W 002°57'714.6
2017-Dec-10 10:30N 50°26' W 002°46'715.0
2017-Dec-10 10:01N 50°27' W 002°34'815.2
2017-Dec-10 09:30N 50°27' W 002°22'1716.4
2017-Dec-10 08:28N 50°28' W 001°55'817.9
2017-Dec-10 08:00N 50°28' W 001°42'3118.9
2017-Dec-10 06:23N 50°30' W 000°54'719.4
2017-Dec-10 06:00N 50°29' W 000°42'1019.1
2017-Dec-10 05:30N 50°30' W 000°27'918.9
2017-Dec-10 05:01N 50°31' W 000°13'918.6
2017-Dec-10 04:30N 50°33' E 000°01'918.2
2017-Dec-10 04:01N 50°35' E 000°15'917.7
2017-Dec-10 03:31N 50°38' E 000°29'917.2
2017-Dec-10 03:01N 50°40' E 000°42'917.2
2017-Dec-10 02:31N 50°45' E 000°53'918.1
2017-Dec-10 02:00N 50°49' E 001°06'1018.7
2017-Dec-10 01:29N 50°55' E 001°18'1020.3
2017-Dec-10 01:00N 51°03' E 001°28'1121.7
2017-Dec-10 00:31N 51°12' E 001°37'1121.3
2017-Dec-10 00:01N 51°22' E 001°43'1020.0
2017-Dec-09 23:31N 51°32' E 001°44'1019.5
2017-Dec-09 23:01N 51°42' E 001°44'918.3
2017-Dec-09 22:31N 51°50' E 001°41'612.4
2017-Dec-09 22:00N 51°48' E 001°33'917.3
2017-Dec-09 21:30N 51°40' E 001°25'918.6
2017-Dec-09 21:00N 51°34' E 001°14'917.8
2017-Dec-09 20:30N 51°30' E 001°01'917.7
2017-Dec-09 20:00N 51°29' E 000°47'4 0.2
2017-Dec-09 05:27N 51°29' E 000°53'1415.1
2017-Dec-09 04:29N 51°34' E 001°14'816.6
2017-Dec-09 04:00N 51°40' E 001°24'816.7
2017-Dec-09 03:31N 51°46' E 001°32'713.8
2017-Dec-09 03:00N 51°52' E 001°40'4 7.2
2017-Dec-09 02:30N 51°51' E 001°45'510.3
2017-Dec-09 02:00N 51°46' E 001°48'510.8
2017-Dec-09 01:30N 51°41' E 001°49'510.5
2017-Dec-09 01:00N 51°36' E 001°53'611.7
2017-Dec-09 00:30N 51°31' E 001°55'510.2
2017-Dec-09 00:00N 51°26' E 002°00'5 9.7
2017-Dec-08 23:31N 51°23' E 002°06'5 9.8
2017-Dec-08 23:00N 51°21' E 002°13'510.5
2017-Dec-08 22:30N 51°21' E 002°22'611.4
2017-Dec-08 21:59N 51°23' E 002°31'510.8
2017-Dec-08 21:29N 51°23' E 002°40'4 8.6
2017-Dec-08 21:00N 51°24' E 002°45'4 7.4
2017-Dec-08 20:30N 51°26' E 002°51'2 3.1
2017-Dec-08 20:00N 51°25' E 002°53'510.0
2017-Dec-08 19:31N 51°25' E 003°01'816.5
2017-Dec-08 19:01N 51°25' E 003°14'816.7
2017-Dec-08 18:31N 51°25' E 003°28'510.6
2017-Dec-08 18:00N 51°26' E 003°36'611.8
2017-Dec-08 17:31N 51°23' E 003°44'713.5
2017-Dec-08 17:00N 51°22' E 003°54'611.6
2017-Dec-08 16:30N 51°26' E 004°01'511.0
2017-Dec-08 16:01N 51°22' E 004°08'4 8.8
2017-Dec-08 15:30N 51°21' E 004°15'1 2.3
2017-Dec-08 14:58N 51°20' E 004°16'0 0.0
2017-Dec-08 14:31N 51°20' E 004°16'0 0.0
2017-Dec-08 14:00N 51°20' E 004°16'0 0.0
2017-Dec-08 13:31N 51°20' E 004°16'0 0.0
2017-Dec-08 13:00N 51°20' E 004°16'0 0.0
2017-Dec-08 12:30N 51°20' E 004°16'0 0.0
2017-Dec-08 12:00N 51°20' E 004°16'0 0.0
2017-Dec-08 11:29N 51°20' E 004°16'0 0.0
2017-Dec-08 11:00N 51°20' E 004°16'0 0.0
2017-Dec-08 10:31N 51°20' E 004°16'0 0.0
2017-Dec-08 10:00N 51°20' E 004°16'0 0.0
2017-Dec-08 09:30N 51°20' E 004°16'0 0.0
2017-Dec-08 09:01N 51°20' E 004°16'0 0.0
2017-Dec-08 08:31N 51°20' E 004°16'0 0.0
2017-Dec-08 08:00N 51°20' E 004°16'0 0.0
2017-Dec-08 07:27N 51°20' E 004°16'0 0.0
2017-Dec-08 07:00N 51°20' E 004°16'0 0.0
2017-Dec-08 06:31N 51°20' E 004°16'0 0.0
2017-Dec-08 06:01N 51°20' E 004°16'0 0.0
2017-Dec-08 05:31N 51°20' E 004°16'0 0.0
2017-Dec-08 05:01N 51°20' E 004°16'0 0.0
2017-Dec-08 04:23N 51°20' E 004°16'0 0.0
2017-Dec-08 04:00N 51°20' E 004°16'0 0.0
2017-Dec-08 03:26N 51°20' E 004°16'0 0.0
2017-Dec-08 03:00N 51°20' E 004°16'0 0.0
2017-Dec-08 02:29N 51°20' E 004°16'0 0.0
2017-Dec-08 02:00N 51°20' E 004°16'0 0.0
2017-Dec-08 01:30N 51°20' E 004°16'0 0.0
2017-Dec-08 00:58N 51°20' E 004°16'0 0.0
2017-Dec-08 00:28N 51°20' E 004°16'0 0.0
2017-Dec-08 00:01N 51°20' E 004°16'0 0.0
2017-Dec-07 23:30N 51°20' E 004°16'0 0.0
2017-Dec-07 23:00N 51°20' E 004°16'0 0.0
2017-Dec-07 22:31N 51°20' E 004°16'0 0.0
2017-Dec-07 22:00N 51°20' E 004°16'0 0.0
2017-Dec-07 21:30N 51°20' E 004°16'0 0.0
2017-Dec-07 21:01N 51°20' E 004°16'0 0.0
2017-Dec-07 20:31N 51°20' E 004°16'0 0.0
2017-Dec-07 19:55N 51°20' E 004°16'0 0.0
2017-Dec-07 19:30N 51°20' E 004°16'0 0.0
2017-Dec-07 18:55N 51°20' E 004°16'0 0.0
2017-Dec-07 18:30N 51°20' E 004°16'0 0.0
2017-Dec-07 18:01N 51°20' E 004°16'0 0.0
2017-Dec-07 17:31N 51°20' E 004°16'0 0.0
2017-Dec-07 17:01N 51°20' E 004°16'0 0.0
2017-Dec-07 16:31N 51°20' E 004°16'0 0.0
2017-Dec-07 16:01N 51°20' E 004°16'0 0.0
2017-Dec-07 15:28N 51°20' E 004°16'0 0.0
2017-Dec-07 15:00N 51°20' E 004°16'0 0.0
2017-Dec-07 14:19N 51°20' E 004°16'0 0.0
2017-Dec-07 14:01N 51°20' E 004°16'0 0.0
2017-Dec-07 13:30N 51°20' E 004°16'0 0.0
2017-Dec-07 13:00N 51°20' E 004°16'0 0.0
2017-Dec-07 12:31N 51°20' E 004°16'1 1.8
2017-Dec-07 12:01N 51°21' E 004°15'4 8.0
2017-Dec-07 11:30N 51°23' E 004°10'510.4
2017-Dec-07 11:00N 51°25' E 004°02'510.8
2017-Dec-07 10:30N 51°22' E 003°55'713.5
2017-Dec-07 10:00N 51°22' E 003°44'611.6
2017-Dec-07 09:30N 51°26' E 003°37'5 9.7
2017-Dec-07 09:00N 51°25' E 003°29'816.2
2017-Dec-07 08:30N 51°24' E 003°16'816.7
2017-Dec-07 08:00N 51°24' E 003°03'611.4
2017-Dec-07 07:30N 51°30' E 003°03'816.8
2017-Dec-07 07:00N 51°37' E 003°11'714.0
2017-Dec-07 06:30N 51°44' E 003°15'2 3.4
2017-Dec-07 05:47N 51°46' E 003°15'412.5
2017-Dec-07 05:28N 51°50' E 003°17'2813.8
2017-Dec-07 03:26N 52°17' E 003°26'2113.5
2017-Dec-07 01:53N 52°38' E 003°31'613.9
2017-Dec-07 01:29N 52°43' E 003°37'1016.0
2017-Dec-07 00:51N 52°51' E 003°47'616.6
2017-Dec-07 00:28N 52°55' E 003°54'816.5
2017-Dec-06 23:58N 53°01' E 004°04'716.6
2017-Dec-06 23:30N 53°06' E 004°13'1813.6
2017-Dec-06 22:11N 53°20' E 004°32'412.8
2017-Dec-06 21:51N 53°24' E 004°35'511.7
2017-Dec-06 21:24N 53°28' E 004°40'511.8
2017-Dec-06 21:01N 53°30' E 004°48'  
2017-Dec-04 10:30N 51°25' E 002°09'918.5
2017-Dec-04 10:00N 51°16' E 002°06'918.2
2017-Dec-04 09:30N 51°10' E 001°55'918.0
2017-Dec-04 09:01N 51°05' E 001°43'816.9
2017-Dec-04 08:30N 50°59' E 001°33'816.6
2017-Dec-04 08:00N 50°52' E 001°26'1016.8
2017-Dec-04 07:26N 50°43' E 001°20'717.8
2017-Dec-04 07:00N 50°38' E 001°12'918.0
2017-Dec-04 06:30N 50°32' E 001°00'918.5
2017-Dec-04 06:00N 50°30' E 000°46'1018.5
2017-Dec-04 05:29N 50°28' E 000°31'918.3
2017-Dec-04 05:00N 50°25' E 000°18'918.2
2017-Dec-04 04:30N 50°22' E 000°04'917.9
2017-Dec-04 04:00N 50°20' W 000°09'917.6
2017-Dec-04 03:30N 50°18' W 000°23'3516.0
2017-Dec-04 01:18N 50°17' W 001°18'515.1
2017-Dec-04 00:59N 50°19' W 001°25'1616.3
2017-Dec-03 23:59N 50°21' W 001°50'817.5
2017-Dec-03 23:30N 50°21' W 002°03'918.6
2017-Dec-03 23:00N 50°22' W 002°17'1019.6
2017-Dec-03 22:30N 50°22' W 002°33'1020.0
2017-Dec-03 22:00N 50°23' W 002°48'1020.1
2017-Dec-03 21:30N 50°24' W 003°04'1020.0
2017-Dec-03 21:00N 50°25' W 003°20'510.3
2017-Dec-03 20:31N 50°23' W 003°27'815.9
2017-Dec-03 20:01N 50°15' W 003°29'1019.5
2017-Dec-03 19:31N 50°06' W 003°34'1019.9
2017-Dec-03 19:01N 49°60' W 003°46'1020.5
2017-Dec-03 18:30N 49°56' W 004°01'1020.7
2017-Dec-03 18:00N 49°52' W 004°16'1020.7
2017-Dec-03 17:30N 49°48' W 004°31'1020.8
2017-Dec-03 17:00N 49°44' W 004°45'5620.4
2017-Dec-03 14:16N 49°22' W 006°05'720.2
2017-Dec-03 13:57N 49°22' W 006°15'1019.3
2017-Dec-03 13:27N 49°22' W 006°30'1318.9
2017-Dec-03 12:45N 49°22' W 006°50'718.6
2017-Dec-03 12:24N 49°22' W 007°00'2018.2
2017-Dec-03 11:18N 49°26' W 007°30'  
Track history (hours):
 
Tides and Currents Weather Stations Pressure Air Temp Water Temp Dewpoint Dewpoint Depression Visibility Wind Speed Wind Dir Waves Ship Positions

YM Enlightenment

Last reported at 2017-Dec-10 14:44 UTC. Time now 2017-Dec-12 19:51 UTC.
Position N 50°02' W 003°42'.

Length 259 m; draft 12.7 m.

Type: Ship (hazmat cat A). MMSI: 636016703.

Date/timePositionNaut miles runAvg speedWind from/ knotsBaromVisibWave heightAir tempDewpointWater temp
2017-Dec-10 14:44N 50°02' W 003°42'414.0
2017-Dec-10 14:28N 50°04' W 003°37'714.2
2017-Dec-10 14:00N 50°09' W 003°30'714.2
2017-Dec-10 13:30N 50°16' W 003°27'3 5.7
2017-Dec-10 13:00N 50°19' W 003°27'611.6
2017-Dec-10 12:30N 50°24' W 003°25'3 6.9
2017-Dec-10 12:00N 50°26' W 003°21'815.3
2017-Dec-10 11:31N 50°27' W 003°09'714.9
2017-Dec-10 11:01N 50°27' W 002°57'714.6
2017-Dec-10 10:30N 50°26' W 002°46'715.0
2017-Dec-10 10:01N 50°27' W 002°34'815.2
2017-Dec-10 09:30N 50°27' W 002°22'1716.4
2017-Dec-10 08:28N 50°28' W 001°55'817.9
2017-Dec-10 08:00N 50°28' W 001°42'3118.9
2017-Dec-10 06:23N 50°30' W 000°54'719.4
2017-Dec-10 06:00N 50°29' W 000°42'1019.1
2017-Dec-10 05:30N 50°30' W 000°27'918.9
2017-Dec-10 05:01N 50°31' W 000°13'918.6
2017-Dec-10 04:30N 50°33' E 000°01'918.2
2017-Dec-10 04:01N 50°35' E 000°15'917.7
2017-Dec-10 03:31N 50°38' E 000°29'917.2
2017-Dec-10 03:01N 50°40' E 000°42'917.2
2017-Dec-10 02:31N 50°45' E 000°53'918.1
2017-Dec-10 02:00N 50°49' E 001°06'1018.7
2017-Dec-10 01:29N 50°55' E 001°18'1020.3
2017-Dec-10 01:00N 51°03' E 001°28'1121.7
2017-Dec-10 00:31N 51°12' E 001°37'1121.3
2017-Dec-10 00:01N 51°22' E 001°43'1020.0
2017-Dec-09 23:31N 51°32' E 001°44'1019.5
2017-Dec-09 23:01N 51°42' E 001°44'918.3
2017-Dec-09 22:31N 51°50' E 001°41'612.4
2017-Dec-09 22:00N 51°48' E 001°33'917.3
2017-Dec-09 21:30N 51°40' E 001°25'918.6
2017-Dec-09 21:00N 51°34' E 001°14'917.8
2017-Dec-09 20:30N 51°30' E 001°01'917.7
2017-Dec-09 20:00N 51°29' E 000°47'4 0.2
2017-Dec-09 05:27N 51°29' E 000°53'1415.1
2017-Dec-09 04:29N 51°34' E 001°14'816.6
2017-Dec-09 04:00N 51°40' E 001°24'816.7
2017-Dec-09 03:31N 51°46' E 001°32'713.8
2017-Dec-09 03:00N 51°52' E 001°40'4 7.2
2017-Dec-09 02:30N 51°51' E 001°45'510.3
2017-Dec-09 02:00N 51°46' E 001°48'510.8
2017-Dec-09 01:30N 51°41' E 001°49'510.5
2017-Dec-09 01:00N 51°36' E 001°53'611.7
2017-Dec-09 00:30N 51°31' E 001°55'510.2
2017-Dec-09 00:00N 51°26' E 002°00'5 9.7
2017-Dec-08 23:31N 51°23' E 002°06'5 9.8
2017-Dec-08 23:00N 51°21' E 002°13'510.5
2017-Dec-08 22:30N 51°21' E 002°22'611.4
2017-Dec-08 21:59N 51°23' E 002°31'510.8
2017-Dec-08 21:29N 51°23' E 002°40'4 8.6
2017-Dec-08 21:00N 51°24' E 002°45'4 7.4
2017-Dec-08 20:30N 51°26' E 002°51'2 3.1
2017-Dec-08 20:00N 51°25' E 002°53'510.0
2017-Dec-08 19:31N 51°25' E 003°01'816.5
2017-Dec-08 19:01N 51°25' E 003°14'816.7
2017-Dec-08 18:31N 51°25' E 003°28'510.6
2017-Dec-08 18:00N 51°26' E 003°36'611.8
2017-Dec-08 17:31N 51°23' E 003°44'713.5
2017-Dec-08 17:00N 51°22' E 003°54'611.6
2017-Dec-08 16:30N 51°26' E 004°01'511.0
2017-Dec-08 16:01N 51°22' E 004°08'4 8.8
2017-Dec-08 15:30N 51°21' E 004°15'1 2.3
2017-Dec-08 14:58N 51°20' E 004°16'0 0.0
2017-Dec-08 14:31N 51°20' E 004°16'0 0.0
2017-Dec-08 14:00N 51°20' E 004°16'0 0.0
2017-Dec-08 13:31N 51°20' E 004°16'0 0.0
2017-Dec-08 13:00N 51°20' E 004°16'0 0.0
2017-Dec-08 12:30N 51°20' E 004°16'0 0.0
2017-Dec-08 12:00N 51°20' E 004°16'0 0.0
2017-Dec-08 11:29N 51°20' E 004°16'0 0.0
2017-Dec-08 11:00N 51°20' E 004°16'0 0.0
2017-Dec-08 10:31N 51°20' E 004°16'0 0.0
2017-Dec-08 10:00N 51°20' E 004°16'0 0.0
2017-Dec-08 09:30N 51°20' E 004°16'0 0.0
2017-Dec-08 09:01N 51°20' E 004°16'0 0.0
2017-Dec-08 08:31N 51°20' E 004°16'0 0.0
2017-Dec-08 08:00N 51°20' E 004°16'0 0.0
2017-Dec-08 07:27N 51°20' E 004°16'0 0.0
2017-Dec-08 07:00N 51°20' E 004°16'0 0.0
2017-Dec-08 06:31N 51°20' E 004°16'0 0.0
2017-Dec-08 06:01N 51°20' E 004°16'0 0.0
2017-Dec-08 05:31N 51°20' E 004°16'0 0.0
2017-Dec-08 05:01N 51°20' E 004°16'0 0.0
2017-Dec-08 04:23N 51°20' E 004°16'0 0.0
2017-Dec-08 04:00N 51°20' E 004°16'0 0.0
2017-Dec-08 03:26N 51°20' E 004°16'0 0.0
2017-Dec-08 03:00N 51°20' E 004°16'0 0.0
2017-Dec-08 02:29N 51°20' E 004°16'0 0.0
2017-Dec-08 02:00N 51°20' E 004°16'0 0.0
2017-Dec-08 01:30N 51°20' E 004°16'0 0.0
2017-Dec-08 00:58N 51°20' E 004°16'0 0.0
2017-Dec-08 00:28N 51°20' E 004°16'0 0.0
2017-Dec-08 00:01N 51°20' E 004°16'0 0.0
2017-Dec-07 23:30N 51°20' E 004°16'0 0.0
2017-Dec-07 23:00N 51°20' E 004°16'0 0.0
2017-Dec-07 22:31N 51°20' E 004°16'0 0.0
2017-Dec-07 22:00N 51°20' E 004°16'0 0.0
2017-Dec-07 21:30N 51°20' E 004°16'0 0.0
2017-Dec-07 21:01N 51°20' E 004°16'0 0.0
2017-Dec-07 20:31N 51°20' E 004°16'0 0.0
2017-Dec-07 19:55N 51°20' E 004°16'0 0.0
2017-Dec-07 19:30N 51°20' E 004°16'0 0.0
2017-Dec-07 18:55N 51°20' E 004°16'0 0.0
2017-Dec-07 18:30N 51°20' E 004°16'0 0.0
2017-Dec-07 18:01N 51°20' E 004°16'0 0.0
2017-Dec-07 17:31N 51°20' E 004°16'0 0.0
2017-Dec-07 17:01N 51°20' E 004°16'0 0.0
2017-Dec-07 16:31N 51°20' E 004°16'0 0.0
2017-Dec-07 16:01N 51°20' E 004°16'0 0.0
2017-Dec-07 15:28N 51°20' E 004°16'0 0.0
2017-Dec-07 15:00N 51°20' E 004°16'0 0.0
2017-Dec-07 14:19N 51°20' E 004°16'0 0.0
2017-Dec-07 14:01N 51°20' E 004°16'0 0.0
2017-Dec-07 13:30N 51°20' E 004°16'0 0.0
2017-Dec-07 13:00N 51°20' E 004°16'0 0.0
2017-Dec-07 12:31N 51°20' E 004°16'1 1.8
2017-Dec-07 12:01N 51°21' E 004°15'4 8.0
2017-Dec-07 11:30N 51°23' E 004°10'510.4
2017-Dec-07 11:00N 51°25' E 004°02'510.8
2017-Dec-07 10:30N 51°22' E 003°55'713.5
2017-Dec-07 10:00N 51°22' E 003°44'611.6
2017-Dec-07 09:30N 51°26' E 003°37'5 9.7
2017-Dec-07 09:00N 51°25' E 003°29'816.2
2017-Dec-07 08:30N 51°24' E 003°16'816.7
2017-Dec-07 08:00N 51°24' E 003°03'611.4
2017-Dec-07 07:30N 51°30' E 003°03'816.8
2017-Dec-07 07:00N 51°37' E 003°11'714.0
2017-Dec-07 06:30N 51°44' E 003°15'2 3.4
2017-Dec-07 05:47N 51°46' E 003°15'412.5
2017-Dec-07 05:28N 51°50' E 003°17'2813.8
2017-Dec-07 03:26N 52°17' E 003°26'2113.5
2017-Dec-07 01:53N 52°38' E 003°31'613.9
2017-Dec-07 01:29N 52°43' E 003°37'1016.0
2017-Dec-07 00:51N 52°51' E 003°47'616.6
2017-Dec-07 00:28N 52°55' E 003°54'816.5
2017-Dec-06 23:58N 53°01' E 004°04'716.6
2017-Dec-06 23:30N 53°06' E 004°13'1813.6
2017-Dec-06 22:11N 53°20' E 004°32'412.8
2017-Dec-06 21:51N 53°24' E 004°35'511.7
2017-Dec-06 21:24N 53°28' E 004°40'511.8
2017-Dec-06 21:01N 53°30' E 004°48'  
2017-Dec-04 10:30N 51°25' E 002°09'918.5
2017-Dec-04 10:00N 51°16' E 002°06'918.2
2017-Dec-04 09:30N 51°10' E 001°55'918.0
2017-Dec-04 09:01N 51°05' E 001°43'816.9
2017-Dec-04 08:30N 50°59' E 001°33'816.6
2017-Dec-04 08:00N 50°52' E 001°26'1016.8
2017-Dec-04 07:26N 50°43' E 001°20'717.8
2017-Dec-04 07:00N 50°38' E 001°12'918.0
2017-Dec-04 06:30N 50°32' E 001°00'918.5
2017-Dec-04 06:00N 50°30' E 000°46'1018.5
2017-Dec-04 05:29N 50°28' E 000°31'918.3
2017-Dec-04 05:00N 50°25' E 000°18'918.2
2017-Dec-04 04:30N 50°22' E 000°04'917.9
2017-Dec-04 04:00N 50°20' W 000°09'917.6
2017-Dec-04 03:30N 50°18' W 000°23'3516.0
2017-Dec-04 01:18N 50°17' W 001°18'515.1
2017-Dec-04 00:59N 50°19' W 001°25'1616.3
2017-Dec-03 23:59N 50°21' W 001°50'817.5
2017-Dec-03 23:30N 50°21' W 002°03'918.6
2017-Dec-03 23:00N 50°22' W 002°17'1019.6
2017-Dec-03 22:30N 50°22' W 002°33'1020.0
2017-Dec-03 22:00N 50°23' W 002°48'1020.1
2017-Dec-03 21:30N 50°24' W 003°04'1020.0
2017-Dec-03 21:00N 50°25' W 003°20'510.3
2017-Dec-03 20:31N 50°23' W 003°27'815.9
2017-Dec-03 20:01N 50°15' W 003°29'1019.5
2017-Dec-03 19:31N 50°06' W 003°34'1019.9
2017-Dec-03 19:01N 49°60' W 003°46'1020.5
2017-Dec-03 18:30N 49°56' W 004°01'1020.7
2017-Dec-03 18:00N 49°52' W 004°16'1020.7
2017-Dec-03 17:30N 49°48' W 004°31'1020.8
2017-Dec-03 17:00N 49°44' W 004°45'5620.4
2017-Dec-03 14:16N 49°22' W 006°05'720.2
2017-Dec-03 13:57N 49°22' W 006°15'1019.3
2017-Dec-03 13:27N 49°22' W 006°30'1318.9
2017-Dec-03 12:45N 49°22' W 006°50'718.6
2017-Dec-03 12:24N 49°22' W 007°00'2018.2
2017-Dec-03 11:18N 49°26' W 007°30'  

Dump ship's entire track history